createdAt,value
2018-06-22T04:09:53.342Z,90.83
2018-06-22T04:10:18.842Z,91.02
2018-06-22T04:10:44.343Z,91.6
2018-06-22T04:11:09.799Z,91.41
2018-06-22T04:11:35.300Z,91.02
2018-06-22T04:12:00.758Z,91.41
2018-06-22T04:12:26.254Z,91.55
2018-06-22T04:12:51.756Z,91.02
2018-06-22T04:13:17.267Z,91.17
2018-06-22T04:13:42.755Z,91.17
2018-06-22T04:14:08.223Z,91.17
2018-06-22T04:14:33.699Z,91.31
2018-06-22T04:14:59.204Z,91.07
2018-06-22T04:15:24.697Z,91.27
2018-06-22T04:15:50.206Z,90.98
2018-06-22T04:16:15.702Z,90.98
2018-06-22T04:16:41.212Z,91.36
2018-06-22T04:17:06.748Z,90.98
2018-06-22T04:17:32.235Z,91.36
2018-06-22T04:17:57.735Z,91.17
2018-06-22T04:18:23.226Z,91.07
2018-06-22T04:18:48.734Z,91.36
2018-06-22T04:19:14.214Z,91.27
2018-06-22T04:19:39.715Z,91.17
2018-06-22T04:20:05.193Z,91.17
2018-06-22T04:20:30.674Z,91.27
2018-06-22T04:20:56.160Z,91.55
2018-06-22T04:21:21.640Z,91.17
2018-06-22T04:22:15.090Z,91.55
2018-06-22T04:22:40.593Z,91.17
2018-06-22T04:23:06.078Z,92.41
2018-06-22T04:23:31.576Z,92.22
2018-06-22T04:23:57.090Z,92.12
2018-06-22T04:24:22.597Z,91.55
2018-06-22T04:24:48.098Z,91.17
2018-06-22T04:25:13.647Z,91.83
2018-06-22T04:25:39.148Z,92.03
2018-06-22T04:26:04.654Z,92.03
2018-06-22T04:26:30.167Z,92.22
2018-06-22T04:26:55.680Z,91.93
2018-06-22T04:27:21.169Z,91.74
2018-06-22T04:27:46.670Z,92.12
2018-06-22T04:28:12.170Z,91.83
2018-06-22T04:28:37.675Z,91.83
2018-06-22T04:29:03.179Z,92.22
2018-06-22T04:29:28.664Z,92.32
2018-06-22T04:29:54.171Z,92.5
2018-06-22T04:30:19.643Z,91.74
2018-06-22T04:30:45.164Z,92.12
2018-06-22T04:31:10.646Z,91.83
2018-06-22T04:31:36.163Z,92.03
2018-06-22T04:32:01.656Z,91.83
2018-06-22T04:33:10.382Z,91.83
2018-06-22T04:33:35.888Z,92.22
2018-06-22T04:34:01.394Z,91.83
2018-06-22T04:34:26.891Z,92.41
2018-06-22T04:34:52.379Z,91.83
2018-06-22T04:35:17.896Z,92.22
2018-06-22T04:35:43.380Z,91.46
2018-06-22T04:36:08.878Z,91.93
2018-06-22T04:36:34.369Z,92.12
2018-06-22T04:37:48.137Z,92.5
2018-06-22T04:38:13.620Z,91.64
2018-06-22T04:38:39.139Z,92.12
2018-06-22T04:39:04.629Z,92.03
2018-06-22T04:39:30.149Z,91.93
2018-06-22T04:39:55.649Z,91.83
2018-06-22T04:40:21.140Z,92.03
2018-06-22T04:40:46.655Z,92.32
2018-06-22T04:41:12.120Z,92.88
2018-06-22T04:41:37.621Z,92.88
2018-06-22T04:42:03.127Z,92.69
2018-06-22T04:42:28.624Z,92.69
2018-06-22T04:42:54.122Z,92.69
2018-06-22T04:43:19.608Z,92.69
2018-06-22T04:43:45.116Z,92.69
2018-06-22T04:44:10.577Z,92.69
2018-06-22T04:44:36.081Z,92.32
2018-06-22T04:45:01.585Z,92.12
2018-06-22T04:45:27.083Z,92.69
2018-06-22T04:45:52.561Z,92.5
2018-06-22T04:46:18.068Z,92.69
2018-06-22T04:46:43.564Z,92.98
2018-06-22T04:47:09.068Z,92.5
2018-06-22T04:47:34.567Z,92.88
2018-06-22T04:48:00.037Z,92.79
2018-06-22T04:48:25.519Z,92.69
2018-06-22T04:48:51.027Z,93.08
2018-06-22T04:49:16.508Z,93.17
2018-06-22T04:49:42.006Z,93.74
2018-06-22T04:50:07.508Z,93.84
2018-06-22T04:50:33.002Z,93.65
2018-06-22T04:50:58.479Z,93.46
2018-06-22T04:51:23.978Z,93.55
2018-06-22T04:51:49.477Z,94.03
2018-06-22T04:52:14.985Z,93.93
2018-06-22T04:52:40.468Z,94.03
2018-06-22T04:53:05.986Z,94.22
2018-06-22T04:53:31.516Z,93.65
2018-06-22T04:53:57.025Z,94.41
2018-06-22T04:54:22.529Z,94.41
2018-06-22T04:54:48.013Z,94.7
2018-06-22T04:55:13.512Z,94.51
2018-06-22T04:55:38.998Z,95.17
2018-06-22T04:56:04.498Z,95.17
2018-06-22T04:56:29.983Z,95.46
2018-06-22T04:56:55.506Z,95.27
2018-06-22T04:57:21.002Z,94.79
2018-06-22T04:57:46.501Z,95.17
2018-06-22T04:58:11.998Z,95.08
2018-06-22T04:58:37.496Z,95.08
2018-06-22T04:59:03.021Z,95.65
2018-06-22T04:59:28.509Z,95.08
2018-06-22T04:59:53.989Z,94.98
2018-06-22T05:00:19.467Z,94.98
2018-06-22T05:00:44.960Z,95.27
2018-06-22T05:01:10.452Z,95.27
2018-06-22T05:01:35.953Z,95.37
2018-06-22T05:02:01.444Z,95.56
2018-06-22T05:02:26.928Z,95.37
2018-06-22T05:02:52.430Z,94.89
2018-06-22T05:03:17.923Z,95.75
2018-06-22T05:03:43.540Z,94.98
2018-06-22T05:04:08.919Z,95.56
2018-06-22T05:04:34.427Z,95.08
2018-06-22T05:04:59.972Z,95.37
2018-06-22T05:05:25.456Z,95.56
2018-06-22T05:05:50.958Z,95.37
2018-06-22T05:06:16.425Z,95.46
2018-06-22T05:06:41.950Z,95.08
2018-06-22T05:07:07.422Z,94.89
2018-06-22T05:08:16.176Z,95.08
2018-06-22T05:08:41.650Z,95.46
2018-06-22T05:09:07.180Z,95.65
2018-06-22T05:09:32.679Z,94.98
2018-06-22T05:09:58.164Z,95.08
2018-06-22T05:10:23.675Z,95.17
2018-06-22T05:10:49.180Z,95.08
2018-06-22T05:11:14.634Z,95.08
2018-06-22T05:11:40.102Z,95.51
2018-06-22T05:12:05.584Z,95.46
2018-06-22T05:12:31.084Z,95.37
2018-06-22T05:12:56.553Z,95.17
2018-06-22T05:13:22.054Z,94.79
2018-06-22T05:13:47.553Z,95.46
2018-06-22T05:14:13.085Z,95.37
2018-06-22T05:14:38.527Z,95.03
2018-06-22T05:15:04.016Z,95.84
2018-06-22T05:15:29.507Z,95.56
2018-06-22T05:15:55.025Z,96.03
2018-06-22T05:16:20.519Z,95.46
2018-06-22T05:16:45.998Z,95.08
2018-06-22T05:17:11.507Z,94.89
2018-06-22T05:17:37.008Z,95.17
2018-06-22T05:18:02.512Z,95.17
2018-06-22T05:18:27.968Z,95.32
2018-06-22T05:18:53.453Z,95.56
2018-06-22T05:19:19.007Z,94.93
2018-06-22T05:19:44.462Z,95.32
2018-06-22T05:20:09.954Z,95.61
2018-06-22T05:20:35.450Z,95.79
2018-06-22T05:21:00.917Z,96.08
2018-06-22T05:21:26.442Z,96.08
2018-06-22T05:21:51.933Z,96.84
2018-06-22T05:22:17.437Z,96.7
2018-06-22T05:22:43.016Z,96.36
2018-06-22T05:23:08.451Z,96.8
2018-06-22T05:23:33.917Z,96.17
2018-06-22T05:23:59.426Z,96.17
2018-06-22T05:24:24.923Z,96.36
2018-06-22T05:24:50.470Z,96.13
2018-06-22T05:25:15.936Z,96.27
2018-06-22T05:25:41.419Z,96.65
2018-06-22T05:26:06.920Z,96.46
2018-06-22T05:26:32.403Z,96.65
2018-06-22T05:27:36.026Z,96.89
2018-06-22T05:28:01.540Z,97.08
2018-06-22T05:28:27.041Z,96.89
2018-06-22T05:28:52.539Z,96.98
2018-06-22T05:29:18.046Z,97.37
2018-06-22T05:29:43.560Z,97.41
2018-06-22T05:30:09.128Z,97.41
2018-06-22T05:30:34.582Z,97.13
2018-06-22T05:31:00.084Z,97.37
2018-06-22T05:31:25.612Z,97.13
2018-06-22T05:31:51.113Z,97.17
2018-06-22T05:32:16.597Z,97.27
2018-06-22T05:32:42.116Z,97.37
2018-06-22T05:33:07.611Z,97.41
2018-06-22T05:33:33.127Z,97.32
2018-06-22T05:33:58.622Z,97.27
2018-06-22T05:34:24.122Z,97.22
2018-06-22T05:34:49.632Z,97.37
2018-06-22T05:35:15.107Z,97.22
2018-06-22T05:35:40.595Z,97.46
2018-06-22T05:36:06.092Z,97.37
2018-06-22T05:36:31.588Z,97.66
2018-06-22T05:36:57.089Z,97.56
2018-06-22T05:37:22.579Z,97.7
2018-06-22T05:37:48.078Z,97.37
2018-06-22T05:38:13.570Z,97.13
2018-06-22T05:38:39.044Z,97.51
2018-06-22T05:39:04.541Z,97.85
2018-06-22T05:39:30.032Z,97.51
2018-06-22T05:39:55.557Z,97.85
2018-06-22T05:40:21.033Z,97.46
2018-06-22T05:40:46.538Z,97.32
2018-06-22T05:41:12.055Z,97.17
2018-06-22T05:41:37.511Z,97.37
2018-06-22T05:42:03.030Z,97.32
2018-06-22T05:42:28.550Z,97.46
2018-06-22T05:42:54.037Z,97.61
2018-06-22T05:43:19.545Z,97.27
2018-06-22T05:43:45.048Z,97.17
2018-06-22T05:44:10.531Z,97.27
2018-06-22T05:44:36.036Z,97.27
2018-06-22T05:45:01.541Z,97.27
2018-06-22T05:45:27.004Z,96.89
2018-06-22T05:45:52.479Z,96.98
2018-06-22T05:46:17.982Z,96.98
2018-06-22T05:46:43.454Z,96.8
2018-06-22T05:47:08.935Z,97.46
2018-06-22T05:47:34.452Z,97.27
2018-06-22T05:47:59.946Z,97.46
2018-06-22T05:48:25.429Z,97.46
2018-06-22T05:48:50.926Z,96.89
2018-06-22T05:49:16.384Z,96.7
2018-06-22T05:49:41.890Z,96.13
2018-06-22T05:50:07.352Z,96.13
2018-06-22T05:50:32.899Z,96.51
2018-06-22T05:50:58.413Z,95.94
2018-06-22T05:51:23.817Z,96.32
2018-06-22T05:51:49.301Z,96.22
2018-06-22T05:52:14.803Z,96.03
2018-06-22T05:52:40.310Z,95.94
2018-06-22T05:53:05.762Z,95.37
2018-06-22T05:53:31.287Z,95.7
2018-06-22T05:53:56.784Z,96.13
2018-06-22T05:54:22.293Z,95.98
2018-06-22T05:54:47.766Z,95.98
2018-06-22T05:55:13.281Z,95.41
2018-06-22T05:55:38.746Z,95.46
2018-06-22T05:56:04.328Z,95.61
2018-06-22T05:56:29.845Z,95.51
2018-06-22T05:56:55.329Z,95.7
2018-06-22T05:57:20.843Z,94.93
2018-06-22T05:57:46.345Z,95.41
2018-06-22T05:58:11.854Z,95.41
2018-06-22T05:58:37.361Z,95.7
2018-06-22T05:59:02.861Z,95.51
2018-06-22T05:59:28.371Z,95.61
2018-06-22T05:59:53.835Z,95.98
2018-06-22T06:00:19.319Z,95.22
2018-06-22T06:00:44.821Z,95.41
2018-06-22T06:01:10.336Z,95.32
2018-06-22T06:01:35.863Z,95.41
2018-06-22T06:02:01.371Z,95.7
2018-06-22T06:02:26.894Z,95.22
2018-06-22T06:02:52.435Z,95.22
2018-06-22T06:03:17.928Z,95.12
2018-06-22T06:03:43.414Z,95.22
2018-06-22T06:04:52.106Z,95.61
2018-06-22T06:05:17.598Z,95.12
2018-06-22T06:05:43.073Z,95.12
2018-06-22T06:06:08.552Z,94.36
2018-06-22T06:06:34.045Z,95.12
2018-06-22T06:06:59.480Z,95.03
2018-06-22T06:07:25.007Z,95.17
2018-06-22T06:07:50.497Z,95.22
2018-06-22T06:08:16.014Z,94.65
2018-06-22T06:08:41.472Z,94.56
2018-06-22T06:09:06.926Z,94.56
2018-06-22T06:09:32.420Z,94.27
2018-06-22T06:09:57.926Z,95.22
2018-06-22T06:10:23.408Z,95.32
2018-06-22T06:10:48.917Z,95.03
2018-06-22T06:11:14.477Z,94.27
2018-06-22T06:11:39.955Z,94.36
2018-06-22T06:12:05.464Z,94.36
2018-06-22T06:12:30.972Z,94.46
2018-06-22T06:12:56.467Z,94.31
2018-06-22T06:13:21.940Z,94.27
2018-06-22T06:13:47.436Z,94.12
2018-06-22T06:14:12.985Z,93.7
2018-06-22T06:14:38.457Z,94.41
2018-06-22T06:15:03.940Z,94.56
2018-06-22T06:15:29.436Z,94.27
2018-06-22T06:15:54.929Z,94.51
2018-06-22T06:16:20.428Z,94.6
2018-06-22T06:16:45.927Z,94.51
2018-06-22T06:17:11.421Z,94.79
2018-06-22T06:17:36.924Z,94.51
2018-06-22T06:18:02.398Z,94.7
2018-06-22T06:18:27.888Z,94.31
2018-06-22T06:18:53.393Z,93.55
2018-06-22T06:19:18.868Z,94.22
2018-06-22T06:19:44.379Z,94.12
2018-06-22T06:20:09.943Z,94.22
2018-06-22T06:20:35.385Z,94.12
2018-06-22T06:21:00.879Z,94.51
2018-06-22T06:21:26.356Z,94.12
2018-06-22T06:21:51.854Z,93.84
2018-06-22T06:22:17.344Z,93.74
2018-06-22T06:22:42.840Z,94.31
2018-06-22T06:23:08.338Z,93.26
2018-06-22T06:23:33.816Z,93.26
2018-06-22T06:23:59.301Z,93.26
2018-06-22T06:24:24.799Z,93.17
2018-06-22T06:24:50.278Z,93.65
2018-06-22T06:25:15.797Z,93.26
2018-06-22T06:25:41.284Z,93.46
2018-06-22T06:26:06.787Z,93.46
2018-06-22T06:26:32.287Z,93.74
2018-06-22T06:26:57.791Z,94.12
2018-06-22T06:27:23.487Z,93.93
2018-06-22T06:27:48.813Z,94.31
2018-06-22T06:28:14.317Z,93.74
2018-06-22T06:28:39.812Z,93.55
2018-06-22T06:29:05.297Z,94.12
2018-06-22T06:29:30.786Z,93.84
2018-06-22T06:29:56.326Z,93.55
2018-06-22T06:30:21.800Z,93.65
2018-06-22T06:30:47.315Z,93.65
2018-06-22T06:31:12.799Z,94.12
2018-06-22T06:31:38.265Z,93.65
2018-06-22T06:32:03.769Z,94.03
2018-06-22T06:32:29.257Z,93.74
2018-06-22T06:32:54.733Z,93.65
2018-06-22T06:33:20.238Z,93.17
2018-06-22T06:33:45.716Z,92.97
2018-06-22T06:34:11.239Z,93.17
2018-06-22T06:34:36.719Z,93.26
2018-06-22T06:35:02.204Z,93.46
2018-06-22T06:35:27.693Z,93.26
2018-06-22T06:35:53.196Z,93.55
2018-06-22T06:36:18.688Z,93.74
2018-06-22T06:36:44.180Z,93.46
2018-06-22T06:37:09.690Z,94.03
2018-06-22T06:37:35.185Z,94.31
2018-06-22T06:38:00.690Z,94.31
2018-06-22T06:38:26.189Z,94.41
2018-06-22T06:38:51.684Z,94.03
2018-06-22T06:39:17.161Z,93.93
2018-06-22T06:39:42.671Z,93.46
2018-06-22T06:40:08.167Z,92.97
2018-06-22T06:40:33.679Z,93.26
2018-06-22T06:40:59.156Z,93.36
2018-06-22T06:41:24.652Z,93.55
2018-06-22T06:41:50.182Z,94.03
2018-06-22T06:42:15.627Z,93.84
2018-06-22T06:42:41.112Z,93.65
2018-06-22T06:43:06.623Z,93.65
2018-06-22T06:43:32.106Z,93.74
2018-06-22T06:43:57.596Z,93.84
2018-06-22T06:44:23.085Z,94.12
2018-06-22T06:44:48.589Z,94.03
2018-06-22T06:45:14.081Z,94.22
2018-06-22T06:45:39.569Z,94.03
2018-06-22T06:46:05.091Z,94.22
2018-06-22T06:46:30.615Z,93.93
2018-06-22T06:46:56.099Z,93.84
2018-06-22T06:47:21.625Z,93.84
2018-06-22T06:47:47.122Z,94.31
2018-06-22T06:48:12.621Z,93.7
2018-06-22T06:48:38.127Z,93.79
2018-06-22T06:49:03.642Z,93.88
2018-06-22T06:49:29.118Z,93.88
2018-06-22T06:49:54.618Z,94.07
2018-06-22T06:50:20.107Z,94.22
2018-06-22T06:50:45.641Z,93.98
2018-06-22T06:51:11.111Z,94.03
2018-06-22T06:51:36.634Z,93.79
2018-06-22T06:52:02.141Z,93.74
2018-06-22T06:52:27.656Z,93.93
2018-06-22T06:52:53.150Z,93.7
2018-06-22T06:53:18.670Z,92.83
2018-06-22T06:53:44.160Z,93.21
2018-06-22T06:54:09.645Z,93.6
2018-06-22T06:54:35.136Z,93.41
2018-06-22T06:55:00.618Z,93.21
2018-06-22T06:55:26.099Z,93.31
2018-06-22T06:55:51.590Z,93.7
2018-06-22T06:56:17.094Z,93.6
2018-06-22T06:56:42.640Z,93.7
2018-06-22T06:57:08.072Z,93.02
2018-06-22T06:57:33.541Z,93.02
2018-06-22T06:57:59.010Z,92.93
2018-06-22T06:58:24.489Z,93.41
2018-06-22T06:58:49.966Z,93.5
2018-06-22T06:59:15.454Z,93.02
2018-06-22T06:59:40.947Z,92.74
2018-06-22T07:00:06.437Z,92.36
2018-06-22T07:00:31.924Z,92.26
2018-06-22T07:00:57.444Z,92.16
2018-06-22T07:01:22.946Z,92.64
2018-06-22T07:01:48.497Z,92.55
2018-06-22T07:02:13.999Z,92.74
2018-06-22T07:02:39.563Z,92.36
2018-06-22T07:03:04.972Z,92.74
2018-06-22T07:03:30.478Z,92.07
2018-06-22T07:03:56.000Z,92.07
2018-06-22T07:04:21.455Z,92.3
2018-06-22T07:04:46.931Z,91.93
2018-06-22T07:05:12.453Z,92.02
2018-06-22T07:05:37.951Z,92.21
2018-06-22T07:06:41.561Z,91.06
2018-06-22T07:07:07.084Z,91.16
2018-06-22T07:07:32.573Z,91.35
2018-06-22T07:07:58.059Z,91.93
2018-06-22T07:08:23.561Z,92.16
2018-06-22T07:08:49.015Z,91.97
2018-06-22T07:09:14.533Z,91.3
2018-06-22T07:09:40.003Z,90.63
2018-06-22T07:10:05.510Z,91.3
2018-06-22T07:10:30.977Z,90.82
2018-06-22T07:11:34.596Z,89.77
2018-06-22T07:12:00.096Z,89.96
2018-06-22T07:12:25.597Z,89.67
2018-06-22T07:12:51.102Z,90.16
2018-06-22T07:13:16.623Z,90.16
2018-06-22T07:13:42.163Z,89.53
2018-06-22T07:14:07.620Z,89.58
2018-06-22T07:14:33.126Z,88.53
2018-06-22T07:14:58.631Z,89.1
2018-06-22T07:15:24.145Z,88.29
2018-06-22T07:15:49.637Z,88.29
2018-06-22T07:16:15.139Z,89.15
2018-06-22T07:16:40.710Z,88.76
2018-06-22T07:17:06.260Z,88.76
2018-06-22T07:17:31.703Z,88.48
2018-06-22T07:17:57.169Z,88.76
2018-06-22T07:18:22.686Z,89.15
2018-06-22T07:18:48.199Z,88.48
2018-06-22T07:19:13.699Z,88.48
2018-06-22T07:19:39.186Z,89.15
2018-06-22T07:20:04.676Z,89.58
2018-06-22T07:20:30.178Z,88.52
2018-06-22T07:20:55.683Z,89
2018-06-22T07:21:21.180Z,89.19
2018-06-22T07:21:46.741Z,88.43
2018-06-22T07:22:12.216Z,88.28
2018-06-22T07:22:37.705Z,87.23
2018-06-22T07:23:03.201Z,86.55
2018-06-22T07:23:28.702Z,86.84
2018-06-22T07:23:54.202Z,86.27
2018-06-22T07:24:19.724Z,85.98
2018-06-22T07:24:45.211Z,85.98
2018-06-22T07:25:10.710Z,85.02
2018-06-22T07:25:36.241Z,84.64
2018-06-22T07:26:01.730Z,84.55
2018-06-22T07:26:27.236Z,84.74
2018-06-22T07:26:52.756Z,84.55
2018-06-22T07:27:18.312Z,84.92
2018-06-22T07:27:43.798Z,84.35
2018-06-22T07:28:09.310Z,84.16
2018-06-22T07:28:34.808Z,84.16
2018-06-22T07:29:00.315Z,84.45
2018-06-22T07:29:25.814Z,83.68
2018-06-22T07:29:51.311Z,84.12
2018-06-22T07:30:16.810Z,84.22
2018-06-22T07:30:42.323Z,84.5
2018-06-22T07:31:07.821Z,84.02
2018-06-22T07:31:33.354Z,83.83
2018-06-22T07:31:58.837Z,83.83
2018-06-22T07:32:24.379Z,83.73
2018-06-22T07:32:49.870Z,84.02
2018-06-22T07:33:15.386Z,84.79
2018-06-22T07:33:40.883Z,84.5
2018-06-22T07:34:06.408Z,84.69
2018-06-22T07:34:31.912Z,84.88
2018-06-22T07:34:57.416Z,85.08
2018-06-22T07:35:22.925Z,84.59
2018-06-22T07:35:48.438Z,84.69
2018-06-22T07:36:13.926Z,84.88
2018-06-22T07:36:39.419Z,84.88
2018-06-22T07:37:04.922Z,84.69
2018-06-22T07:37:30.435Z,84.5
2018-06-22T07:37:55.930Z,84.69
2018-06-22T07:38:21.432Z,84.98
2018-06-22T07:38:46.912Z,85.36
2018-06-22T07:39:12.388Z,85.46
2018-06-22T07:39:37.931Z,84.88
2018-06-22T07:40:03.445Z,84.64
2018-06-22T07:40:28.929Z,84.92
2018-06-22T07:40:54.444Z,84.92
2018-06-22T07:41:20.022Z,84.16
2018-06-22T07:41:45.460Z,84.16
2018-06-22T07:42:10.968Z,84.26
2018-06-22T07:42:36.446Z,84.16
2018-06-22T07:43:01.929Z,84.26
2018-06-22T07:43:27.451Z,83.87
2018-06-22T07:43:52.993Z,83.92
2018-06-22T07:44:18.464Z,82.96
2018-06-22T07:44:43.971Z,83.15
2018-06-22T07:45:09.460Z,82.57
2018-06-22T07:45:34.964Z,81.81
2018-06-22T07:46:00.447Z,80.94
2018-06-22T07:46:25.951Z,81.23
2018-06-22T07:46:51.443Z,82.96
2018-06-22T07:47:16.940Z,82.76
2018-06-22T07:47:42.439Z,82.19
2018-06-22T07:48:07.931Z,80.89
2018-06-22T07:48:33.433Z,81.08
2018-06-22T07:48:58.935Z,81.37
2018-06-22T07:49:24.449Z,80.7
2018-06-22T07:49:49.974Z,80.32
2018-06-22T07:50:15.449Z,80.12
2018-06-22T07:50:40.947Z,78.97
2018-06-22T07:51:06.435Z,79.55
2018-06-22T07:51:31.909Z,79.64
2018-06-22T07:51:57.419Z,80.03
2018-06-22T07:52:22.887Z,79.93
2018-06-22T07:52:48.399Z,79.74
2018-06-22T07:53:13.912Z,78.78
2018-06-22T07:53:39.422Z,79.74
2018-06-22T07:54:04.927Z,79.13
2018-06-22T07:54:30.403Z,79.22
2018-06-22T07:54:55.911Z,79.03
2018-06-22T07:55:21.398Z,78.55
2018-06-22T07:55:46.913Z,78.84
2018-06-22T07:56:12.409Z,78.93
2018-06-22T07:56:37.956Z,79.41
2018-06-22T07:57:03.548Z,79.8
2018-06-22T07:57:29.069Z,79.6
2018-06-22T07:57:54.632Z,79.32
2018-06-22T07:58:20.072Z,79.13
2018-06-22T07:58:45.549Z,79.03
2018-06-22T07:59:11.108Z,79.6
2018-06-22T07:59:36.583Z,79.75
2018-06-22T08:00:02.090Z,80.37
2018-06-22T08:00:27.578Z,80.47
2018-06-22T08:00:53.064Z,79.99
2018-06-22T08:01:18.575Z,80.18
2018-06-22T08:01:44.103Z,80.37
2018-06-22T08:02:09.601Z,79.7
2018-06-22T08:02:35.106Z,79.8
2018-06-22T08:03:00.584Z,79.6
2018-06-22T08:03:26.051Z,78.64
2018-06-22T08:03:51.569Z,78.17
2018-06-22T08:04:17.074Z,78.84
2018-06-22T08:04:42.559Z,77.4
2018-06-22T08:05:08.042Z,77.26
2018-06-22T08:05:33.543Z,76.79
2018-06-22T08:05:59.063Z,77.17
2018-06-22T08:06:24.566Z,77.26
2018-06-22T08:06:50.032Z,77.75
2018-06-22T08:07:15.542Z,77.55
2018-06-22T08:07:41.030Z,76.98
2018-06-22T08:08:06.512Z,76.6
2018-06-22T08:08:32.014Z,76.98
2018-06-22T08:08:57.506Z,77.36
2018-06-22T08:09:23.002Z,78.13
2018-06-22T08:09:48.508Z,78.8
2018-06-22T08:10:14.016Z,77.84
2018-06-22T08:10:39.524Z,77.46
2018-06-22T08:11:05.048Z,77.65
2018-06-22T08:11:30.504Z,78.22
2018-06-22T08:11:56.019Z,79.13
2018-06-22T08:12:21.548Z,78.93
2018-06-22T08:12:47.023Z,78.27
2018-06-22T08:13:12.478Z,78.36
2018-06-22T08:13:37.978Z,77.78
2018-06-22T08:14:03.487Z,76.92
2018-06-22T08:14:28.974Z,75.96
2018-06-22T08:14:54.460Z,77.31
2018-06-22T08:15:19.965Z,75.33
2018-06-22T08:15:45.451Z,74.82
2018-06-22T08:16:10.942Z,74.27
2018-06-22T08:16:36.464Z,73.61
2018-06-22T08:17:01.940Z,74.18
2018-06-22T08:17:27.448Z,74.08
2018-06-22T08:17:52.935Z,74.08
2018-06-22T08:18:18.470Z,73.22
2018-06-22T08:18:43.946Z,72.84
2018-06-22T08:19:09.436Z,72.78
2018-06-22T08:19:34.931Z,72.59
2018-06-22T08:20:00.458Z,73.16
2018-06-22T08:20:25.972Z,73.45
2018-06-22T08:20:51.533Z,73.65
2018-06-22T08:21:17.017Z,73.45
2018-06-22T08:21:42.519Z,72.49
2018-06-22T08:22:08.100Z,71.82
2018-06-22T08:22:33.601Z,70.96
2018-06-22T08:22:59.079Z,71.34
2018-06-22T08:23:24.595Z,71.92
2018-06-22T08:23:50.084Z,71.25
2018-06-22T08:24:15.592Z,71.05
2018-06-22T08:24:41.084Z,71.05
2018-06-22T08:25:06.582Z,71.34
2018-06-22T08:25:32.081Z,71.25
2018-06-22T08:25:57.575Z,71.25
2018-06-22T08:26:23.070Z,71.44
2018-06-22T08:26:48.610Z,71.63
2018-06-22T08:27:41.556Z,71.92
2018-06-22T08:28:07.034Z,71.72
2018-06-22T08:28:32.550Z,71.82
2018-06-22T08:28:58.052Z,71.72
2018-06-22T08:29:23.555Z,72.2
2018-06-22T08:29:49.071Z,72.11
2018-06-22T08:30:14.574Z,72.36
2018-06-22T08:30:40.091Z,73.7
2018-06-22T08:31:05.588Z,73.93
2018-06-22T08:31:31.060Z,73.99
2018-06-22T08:31:56.574Z,73.7
2018-06-22T08:32:22.055Z,73.41
2018-06-22T08:32:47.564Z,74.57
2018-06-22T08:33:13.040Z,75.04
2018-06-22T08:33:38.503Z,75.52
2018-06-22T08:34:04.020Z,75.81
2018-06-22T08:34:29.507Z,76.06
2018-06-22T08:34:55.053Z,76.06
2018-06-22T08:35:20.505Z,76.54
2018-06-22T08:35:45.992Z,76.73
2018-06-22T08:36:11.497Z,76.35
2018-06-22T08:36:36.971Z,76.54
2018-06-22T08:37:02.484Z,76.44
2018-06-22T08:37:28.037Z,77.11
2018-06-22T08:37:53.507Z,77.5
2018-06-22T08:38:46.499Z,77.5
2018-06-22T08:39:11.999Z,77.11
2018-06-22T08:39:37.489Z,77.02
2018-06-22T08:40:02.977Z,77.59
2018-06-22T08:40:28.456Z,77.5
2018-06-22T08:40:53.953Z,76.25
2018-06-22T08:41:19.483Z,76.15
2018-06-22T08:41:45.033Z,76.44
2018-06-22T08:42:10.468Z,76.44
2018-06-22T08:42:35.951Z,77.21
2018-06-22T08:43:01.459Z,77.4
2018-06-22T08:43:26.936Z,77.02
2018-06-22T08:43:52.451Z,76.25
2018-06-22T08:44:17.953Z,76.54
2018-06-22T08:44:43.451Z,76.25
2018-06-22T08:45:08.967Z,77.02
2018-06-22T08:45:34.472Z,77.21
2018-06-22T08:45:59.984Z,77.21
2018-06-22T08:46:25.498Z,77.69
2018-06-22T08:46:50.994Z,77.97
2018-06-22T08:47:16.484Z,78.27
2018-06-22T08:47:41.969Z,77.88
2018-06-22T08:48:07.497Z,78.17
2018-06-22T08:48:32.994Z,78.27
2018-06-22T08:48:58.556Z,79.32
2018-06-22T08:49:23.966Z,79.8
2018-06-22T08:49:49.462Z,79.6
2018-06-22T08:50:14.960Z,79.7
2018-06-22T08:50:40.452Z,80.08
2018-06-22T08:51:05.973Z,80.08
2018-06-22T08:51:31.495Z,79.99
2018-06-22T08:51:56.987Z,80.08
2018-06-22T08:52:22.488Z,80.18
2018-06-22T08:52:48.012Z,80.37
2018-06-22T08:53:13.506Z,79.89
2018-06-22T08:53:39.017Z,79.55
2018-06-22T08:54:04.507Z,78.59
2018-06-22T08:54:30.024Z,78.88
2018-06-22T08:54:55.512Z,77.92
2018-06-22T08:55:21.019Z,77.92
2018-06-22T08:55:46.550Z,77.34
2018-06-22T08:56:11.998Z,76.48
2018-06-22T08:56:37.505Z,77.06
2018-06-22T08:57:03.006Z,77.19
2018-06-22T08:57:28.514Z,76.77
2018-06-22T08:57:53.997Z,76.48
2018-06-22T08:58:19.499Z,76.14
2018-06-22T08:59:18.031Z,76.42
2018-06-22T08:59:43.587Z,76.23
2018-06-22T09:00:09.097Z,75.27
2018-06-22T09:00:34.571Z,74.98
2018-06-22T09:01:00.078Z,74.26
2018-06-22T09:01:25.643Z,74.06
2018-06-22T09:01:51.070Z,73
2018-06-22T09:02:16.569Z,72.81
2018-06-22T09:02:42.074Z,71.66
2018-06-22T09:03:07.557Z,70.9
2018-06-22T09:03:33.059Z,70.8
2018-06-22T09:03:58.581Z,70.99
2018-06-22T09:04:24.104Z,70.51
2018-06-22T09:04:49.566Z,70.7
2018-06-22T09:05:15.060Z,70.7
2018-06-22T09:05:40.591Z,70.51
2018-06-22T09:06:06.144Z,70.32
2018-06-22T09:06:31.604Z,70.9
2018-06-22T09:06:57.099Z,70.7
2018-06-22T09:07:22.630Z,69.93
2018-06-22T09:07:48.155Z,69.56
2018-06-22T09:08:13.718Z,68.79
2018-06-22T09:08:39.176Z,68.5
2018-06-22T09:09:04.635Z,68.3
2018-06-22T09:09:30.120Z,68.21
2018-06-22T09:09:55.598Z,68.21
2018-06-22T09:10:21.143Z,68.79
2018-06-22T09:10:46.615Z,67.35
2018-06-22T09:11:12.164Z,67.63
2018-06-22T09:11:37.652Z,67.63
2018-06-22T09:12:03.139Z,68.3
2018-06-22T09:12:28.672Z,68.21
2018-06-22T09:12:54.164Z,68.3
2018-06-22T09:13:19.643Z,67.73
2018-06-22T09:13:45.152Z,68.4
2018-06-22T09:14:10.714Z,68.3
2018-06-22T09:14:36.344Z,68.69
2018-06-22T09:15:01.730Z,69.26
2018-06-22T09:15:27.248Z,69.36
2018-06-22T09:15:52.717Z,67.35
2018-06-22T09:16:18.255Z,68.21
2018-06-22T09:16:43.729Z,69.59
2018-06-22T09:17:09.256Z,70.36
2018-06-22T09:17:34.769Z,70.17
2018-06-22T09:18:00.277Z,69.49
2018-06-22T09:18:25.785Z,69.49
2018-06-22T09:18:51.274Z,68.15
2018-06-22T09:19:16.780Z,67.7
2018-06-22T09:19:42.395Z,67.32
2018-06-22T09:20:07.835Z,67.61
2018-06-22T09:20:33.317Z,67.41
2018-06-22T09:20:58.797Z,67.41
2018-06-22T09:21:24.302Z,67.41
2018-06-22T09:21:49.794Z,67.9
2018-06-22T09:22:15.296Z,67.51
2018-06-22T09:22:40.864Z,67.51
2018-06-22T09:23:06.352Z,67.32
2018-06-22T09:23:31.869Z,67.41
2018-06-22T09:23:57.382Z,67.03
2018-06-22T09:24:22.913Z,66.74
2018-06-22T09:24:48.403Z,67.61
2018-06-22T09:25:13.900Z,67.7
2018-06-22T09:25:39.350Z,67.32
2018-06-22T09:26:04.845Z,67.99
2018-06-22T09:26:30.342Z,67.8
2018-06-22T09:26:55.836Z,68.28
2018-06-22T09:27:21.327Z,68.28
2018-06-22T09:27:46.838Z,68.28
2018-06-22T09:28:12.346Z,68.24
2018-06-22T09:28:37.867Z,68.24
2018-06-22T09:29:03.408Z,68.24
2018-06-22T09:29:28.938Z,68.63
2018-06-22T09:29:54.421Z,69.2
2018-06-22T09:30:19.908Z,69.87
2018-06-22T09:30:45.434Z,69.4
2018-06-22T09:31:10.923Z,70.07
2018-06-22T09:31:36.408Z,71.12
2018-06-22T09:32:01.907Z,72.47
2018-06-22T09:32:27.427Z,73.77
2018-06-22T09:32:52.924Z,74.64
2018-06-22T09:33:18.421Z,75.02
2018-06-22T09:33:43.921Z,75.31
2018-06-22T09:34:09.480Z,76.27
2018-06-22T09:34:34.954Z,77.23
2018-06-22T09:35:00.446Z,77.61
2018-06-22T09:35:25.936Z,77.48
2018-06-22T09:35:51.456Z,78.05
2018-06-22T09:36:16.931Z,78.63
2018-06-22T09:36:42.469Z,78.92
2018-06-22T09:37:07.965Z,78.92
2018-06-22T09:37:33.483Z,78.82
2018-06-22T09:37:58.978Z,78.82
2018-06-22T09:38:24.506Z,79.68
2018-06-22T09:38:50.015Z,80.07
2018-06-22T09:39:15.522Z,79.59
2018-06-22T09:39:41.103Z,79.68
2018-06-22T09:40:06.576Z,79.78
2018-06-22T09:40:32.076Z,79.78
2018-06-22T09:40:57.837Z,79.88
2018-06-22T09:41:23.345Z,79.49
2018-06-22T09:41:48.825Z,80.55
2018-06-22T09:42:14.316Z,80.26
2018-06-22T09:42:39.895Z,81.22
2018-06-22T09:43:05.274Z,81.22
2018-06-22T09:43:30.798Z,81.22
2018-06-22T09:43:56.287Z,81.41
2018-06-22T09:44:21.755Z,81.41
2018-06-22T09:44:47.323Z,81.02
2018-06-22T09:45:12.975Z,81.31
2018-06-22T09:45:38.265Z,81.31
2018-06-22T09:46:03.755Z,80.45